createdAt,value
2018-12-29T00:00:56.583Z,42.67
2018-12-29T00:03:26.543Z,38.20
2018-12-29T00:05:56.313Z,41.13
2018-12-29T00:08:26.492Z,38.60
2018-12-29T00:10:56.424Z,39.40
2018-12-29T00:13:26.394Z,40.70
2018-12-29T00:15:56.192Z,38.83
2018-12-29T00:18:26.054Z,42.50
2018-12-29T00:20:56.302Z,36.90
2018-12-29T00:23:26.073Z,41.23
2018-12-29T00:25:55.963Z,43.00
2018-12-29T00:28:25.818Z,43.50
2018-12-29T00:30:55.695Z,43.83
2018-12-29T00:33:25.837Z,39.67
2018-12-29T00:35:55.704Z,44.17
2018-12-29T00:38:25.584Z,39.57
2018-12-29T00:40:55.538Z,41.13
2018-12-29T00:43:25.387Z,40.50
2018-12-29T00:45:55.495Z,49.43
2018-12-29T00:48:25.430Z,47.60
2018-12-29T00:50:55.310Z,42.30
2018-12-29T00:53:25.125Z,43.13
2018-12-29T00:55:55.272Z,40.33
2018-12-29T00:58:25.156Z,35.07
2018-12-29T01:00:54.954Z,40.53
2018-12-29T01:03:24.893Z,36.63
2018-12-29T01:05:54.696Z,35.97
2018-12-29T01:08:24.674Z,38.67
2018-12-29T01:10:54.547Z,36.73
2018-12-29T01:13:24.417Z,32.70
2018-12-29T01:15:54.286Z,35.83
2018-12-29T01:18:24.398Z,35.20
2018-12-29T01:20:54.626Z,34.03
2018-12-29T01:23:24.497Z,30.30
2018-12-29T01:25:54.718Z,34.63
2018-12-29T01:28:24.578Z,31.47
2018-12-29T01:30:54.435Z,31.50
2018-12-29T01:33:24.497Z,31.33
2018-12-29T01:35:54.349Z,30.20
2018-12-29T01:38:24.353Z,28.93
2018-12-29T01:40:55.580Z,26.13
2018-12-29T01:43:25.778Z,27.60
2018-12-29T01:45:56.308Z,29.70
2018-12-29T01:48:26.545Z,26.50
2018-12-29T01:50:56.507Z,28.60
2018-12-29T01:53:26.295Z,27.63
2018-12-29T01:55:56.163Z,30.00
2018-12-29T01:58:26.033Z,23.53
2018-12-29T02:00:55.985Z,27.90
2018-12-29T02:03:25.867Z,30.57
2018-12-29T02:05:56.032Z,31.07
2018-12-29T02:08:25.999Z,31.23
2018-12-29T02:10:55.797Z,27.90
2018-12-29T02:13:25.670Z,26.13
2018-12-29T02:15:55.909Z,28.97
2018-12-29T02:18:25.807Z,25.63
2018-12-29T02:20:55.958Z,27.60
2018-12-29T02:23:25.803Z,26.63
2018-12-29T02:25:55.673Z,29.33
2018-12-29T02:28:25.533Z,26.93
2018-12-29T02:30:55.325Z,29.93
2018-12-29T02:33:25.142Z,29.90
2018-12-29T02:35:54.988Z,26.13
2018-12-29T02:38:24.866Z,27.97
2018-12-29T02:40:54.732Z,22.23
2018-12-29T02:43:24.584Z,28.13
2018-12-29T02:45:54.557Z,28.87
2018-12-29T02:48:25.519Z,25.87
2018-12-29T02:50:55.407Z,24.00
2018-12-29T02:53:25.303Z,30.73
2018-12-29T02:55:55.246Z,27.57
2018-12-29T02:58:25.204Z,28.33
2018-12-29T03:00:55.013Z,27.40
2018-12-29T03:03:25.207Z,24.70
2018-12-29T03:05:55.131Z,29.23
2018-12-29T03:08:24.988Z,28.40
2018-12-29T03:10:54.933Z,25.90
2018-12-29T03:13:24.802Z,27.93
2018-12-29T03:15:54.681Z,28.37
2018-12-29T03:18:24.791Z,26.83
2018-12-29T03:20:54.923Z,24.67
2018-12-29T03:23:24.817Z,30.13
2018-12-29T03:25:54.714Z,28.67
2018-12-29T03:28:24.871Z,27.93
2018-12-29T03:30:54.678Z,28.33
2018-12-29T03:33:24.553Z,27.50
2018-12-29T03:35:54.564Z,28.07
2018-12-29T03:38:24.538Z,26.53
2018-12-29T03:40:54.497Z,29.20
2018-12-29T03:43:24.375Z,29.57
2018-12-29T03:45:54.570Z,29.30
2018-12-29T03:48:24.367Z,29.57
2018-12-29T03:50:54.239Z,29.77
2018-12-29T03:53:24.112Z,30.10
2018-12-29T03:55:53.901Z,29.03
2018-12-29T03:58:23.759Z,28.43
2018-12-29T04:00:53.622Z,31.50
2018-12-29T04:03:23.417Z,28.93
2018-12-29T04:05:53.638Z,28.93
2018-12-29T04:08:23.693Z,27.37
2018-12-29T04:10:53.559Z,27.57
2018-12-29T04:13:23.478Z,29.13
2018-12-29T04:15:58.061Z,33.67
2018-12-29T04:18:25.023Z,31.30
2018-12-29T04:20:55.097Z,33.47
2018-12-29T04:23:25.220Z,31.47
2018-12-29T04:25:55.075Z,28.73
2018-12-29T04:28:24.937Z,32.20
2018-12-29T04:30:54.743Z,29.53
2018-12-29T04:33:24.695Z,31.87
2018-12-29T04:35:54.519Z,32.73
2018-12-29T04:38:24.325Z,32.10
2018-12-29T04:40:54.652Z,30.63
2018-12-29T04:43:24.523Z,27.40
2018-12-29T04:45:54.765Z,30.63
2018-12-29T04:48:24.657Z,30.17
2018-12-29T04:50:54.549Z,32.83
2018-12-29T04:53:24.457Z,32.10
2018-12-29T04:55:54.333Z,29.93
2018-12-29T04:58:24.196Z,33.67
2018-12-29T05:00:54.044Z,31.03
2018-12-29T05:03:23.836Z,31.00
2018-12-29T05:05:53.957Z,31.90
2018-12-29T05:08:23.761Z,35.57
2018-12-29T05:10:53.552Z,33.63
2018-12-29T05:13:23.350Z,30.67
2018-12-29T05:15:53.129Z,31.73
2018-12-29T05:18:23.292Z,29.90
2018-12-29T05:20:53.463Z,35.70
2018-12-29T05:23:23.440Z,31.93
2018-12-29T05:25:53.299Z,34.80
2018-12-29T05:28:23.275Z,31.27
2018-12-29T05:30:53.231Z,32.53
2018-12-29T05:33:23.038Z,32.50
2018-12-29T05:35:52.868Z,35.67
2018-12-29T05:38:22.691Z,34.33
2018-12-29T05:40:52.844Z,34.27
2018-12-29T05:43:22.967Z,33.67
2018-12-29T05:45:52.843Z,34.70
2018-12-29T05:48:22.726Z,38.00
2018-12-29T05:50:52.832Z,35.33
2018-12-29T05:53:22.781Z,34.90
2018-12-29T05:55:52.735Z,32.00
2018-12-29T05:58:22.706Z,35.73
2018-12-29T06:00:52.539Z,35.47
2018-12-29T06:03:22.503Z,37.07
2018-12-29T06:05:52.299Z,38.27
2018-12-29T06:08:23.247Z,32.40
2018-12-29T06:10:53.171Z,35.53
2018-12-29T06:13:23.297Z,32.37
2018-12-29T06:15:53.115Z,37.23
2018-12-29T06:18:22.969Z,35.60
2018-12-29T06:20:52.840Z,38.03
2018-12-29T06:23:22.776Z,35.93
2018-12-29T06:25:52.725Z,35.77
2018-12-29T06:28:22.510Z,38.60
2018-12-29T06:30:52.399Z,40.63
2018-12-29T06:33:22.644Z,33.80
2018-12-29T06:35:52.815Z,36.97
2018-12-29T06:38:22.742Z,39.23
2018-12-29T06:40:52.890Z,34.43
2018-12-29T06:43:22.769Z,36.37
2018-12-29T06:45:52.717Z,36.00
2018-12-29T06:48:22.541Z,35.77
2018-12-29T06:50:52.730Z,36.57
2018-12-29T06:53:22.984Z,34.70
2018-12-29T06:55:52.856Z,34.53
2018-12-29T06:58:22.737Z,30.53
2018-12-29T07:00:52.612Z,38.30
2018-12-29T07:03:22.710Z,33.80
2018-12-29T07:05:52.595Z,37.37
2018-12-29T07:08:22.370Z,36.73
2018-12-29T07:10:52.323Z,41.47
2018-12-29T07:13:22.874Z,35.53
2018-12-29T07:15:53.033Z,37.23
2018-12-29T07:18:23.606Z,39.13
2018-12-29T07:20:53.772Z,34.47
2018-12-29T07:23:23.849Z,35.10
2018-12-29T07:25:53.722Z,39.57
2018-12-29T07:28:23.665Z,40.37
2018-12-29T07:30:53.480Z,42.73
2018-12-29T07:33:23.294Z,40.97
2018-12-29T07:35:53.337Z,40.73
2018-12-29T07:38:23.977Z,35.03
2018-12-29T07:40:54.087Z,35.83
2018-12-29T07:43:23.886Z,39.23
2018-12-29T07:45:54.021Z,40.60
2018-12-29T07:48:23.889Z,34.27
2018-12-29T07:50:53.766Z,37.57
2018-12-29T07:53:23.653Z,35.20
2018-12-29T07:55:53.779Z,38.30
2018-12-29T07:58:23.895Z,41.23
2018-12-29T08:00:53.771Z,40.27
2018-12-29T08:03:23.931Z,36.57
2018-12-29T08:05:54.187Z,38.97
2018-12-29T08:08:23.988Z,40.00
2018-12-29T08:10:53.841Z,34.87
2018-12-29T08:13:23.732Z,37.70
2018-12-29T08:15:54.014Z,36.30
2018-12-29T08:18:23.894Z,40.20
2018-12-29T08:20:53.909Z,37.53
2018-12-29T08:23:24.969Z,39.53
2018-12-29T08:25:54.842Z,34.03
2018-12-29T08:28:24.770Z,34.23
2018-12-29T08:30:54.946Z,38.50
2018-12-29T08:33:24.826Z,33.33
2018-12-29T08:35:55.689Z,40.90
2018-12-29T08:38:25.630Z,34.83
2018-12-29T08:40:55.415Z,35.37
2018-12-29T08:43:26.953Z,41.70
2018-12-29T08:45:56.766Z,37.73
2018-12-29T08:48:26.577Z,37.57
2018-12-29T08:50:56.525Z,38.30
2018-12-29T08:53:26.385Z,39.03
2018-12-29T08:55:56.251Z,37.27
2018-12-29T08:58:26.109Z,36.03
2018-12-29T09:00:55.971Z,37.33
2018-12-29T09:03:26.155Z,38.53
2018-12-29T09:05:55.947Z,41.63
2018-12-29T09:08:26.141Z,38.17
2018-12-29T09:10:56.034Z,34.70
2018-12-29T09:13:25.914Z,39.30
2018-12-29T09:15:55.722Z,41.77
2018-12-29T09:18:25.684Z,38.13
2018-12-29T09:20:55.883Z,36.87
2018-12-29T09:23:25.877Z,36.00
2018-12-29T09:25:55.803Z,37.93
2018-12-29T09:28:25.761Z,36.47
2018-12-29T09:30:55.715Z,38.80
2018-12-29T09:33:25.510Z,40.00
2018-12-29T09:35:56.322Z,37.07
2018-12-29T09:38:26.376Z,39.87
2018-12-29T09:40:56.496Z,37.20
2018-12-29T09:43:26.744Z,40.13
2018-12-29T09:45:56.625Z,39.13
2018-12-29T09:48:26.664Z,42.47
2018-12-29T09:50:56.593Z,36.30
2018-12-29T09:53:26.887Z,34.67
2018-12-29T09:55:56.720Z,33.27
2018-12-29T09:58:26.580Z,38.20
2018-12-29T10:00:56.770Z,36.70
2018-12-29T10:03:26.676Z,39.37
2018-12-29T10:05:56.550Z,35.90
2018-12-29T10:08:26.692Z,41.63
2018-12-29T10:10:56.630Z,34.13
2018-12-29T10:13:26.597Z,40.00
2018-12-29T10:15:56.475Z,36.03
2018-12-29T10:18:26.795Z,38.77
2018-12-29T10:20:56.897Z,37.70
2018-12-29T10:23:27.859Z,36.63
2018-12-29T10:25:58.067Z,41.10
2018-12-29T10:28:28.028Z,36.00
2018-12-29T10:30:58.193Z,37.07
2018-12-29T10:33:28.001Z,34.70
2018-12-29T10:35:58.455Z,37.27
2018-12-29T10:38:28.340Z,37.10
2018-12-29T10:40:58.206Z,35.93
2018-12-29T10:43:28.321Z,35.70
2018-12-29T10:45:59.345Z,37.00
2018-12-29T10:48:29.382Z,33.53
2018-12-29T10:50:59.342Z,35.43
2018-12-29T10:53:29.126Z,38.67
2018-12-29T10:55:59.081Z,32.47
2018-12-29T10:58:29.197Z,31.03
2018-12-29T11:00:59.067Z,31.23
2018-12-29T11:03:29.130Z,35.30
2018-12-29T11:05:59.042Z,33.83
2018-12-29T11:08:28.973Z,32.60
2018-12-29T11:10:58.839Z,33.63
2018-12-29T11:13:28.796Z,33.43
2018-12-29T11:15:58.700Z,35.33
2018-12-29T11:18:28.472Z,30.43
2018-12-29T11:20:58.356Z,34.57
2018-12-29T11:23:28.162Z,32.13
2018-12-29T11:25:58.362Z,28.57
2018-12-29T11:28:28.255Z,29.57
2018-12-29T11:30:58.046Z,33.33
2018-12-29T11:33:28.276Z,33.07
2018-12-29T11:35:58.084Z,29.37
2018-12-29T11:38:27.932Z,30.53
2018-12-29T11:40:57.883Z,32.43
2018-12-29T11:43:27.678Z,30.27
2018-12-29T11:45:57.629Z,33.13
2018-12-29T11:48:27.475Z,32.63
2018-12-29T11:50:57.367Z,34.00
2018-12-29T11:53:27.244Z,28.87
2018-12-29T11:55:57.374Z,33.47
2018-12-29T11:58:27.308Z,30.43
2018-12-29T12:00:57.197Z,31.20
2018-12-29T12:03:27.648Z,28.43
2018-12-29T12:05:57.918Z,31.07
2018-12-29T12:08:27.805Z,35.67
2018-12-29T12:10:58.592Z,31.23
2018-12-29T12:13:28.396Z,27.30
2018-12-29T12:15:58.900Z,24.73
2018-12-29T12:18:28.709Z,31.00
2018-12-29T12:20:59.256Z,28.43
2018-12-29T12:23:29.498Z,27.53
2018-12-29T12:25:59.436Z,28.63
2018-12-29T12:28:30.389Z,30.97
2018-12-29T12:31:00.261Z,28.37
2018-12-29T12:33:30.480Z,30.10
2018-12-29T12:36:00.374Z,28.77
2018-12-29T12:38:30.291Z,30.63
2018-12-29T12:41:00.392Z,30.20
2018-12-29T12:43:30.512Z,28.37
2018-12-29T12:46:01.021Z,28.87
2018-12-29T12:48:31.961Z,30.27
2018-12-29T12:51:02.177Z,31.93
2018-12-29T12:53:32.331Z,29.30
2018-12-29T12:56:02.261Z,30.03
2018-12-29T12:58:33.307Z,27.00
2018-12-29T13:01:03.762Z,31.30
2018-12-29T13:03:34.097Z,33.53
2018-12-29T13:06:03.992Z,28.20
2018-12-29T13:08:33.804Z,29.13
2018-12-29T13:11:04.178Z,29.07
2018-12-29T13:13:34.302Z,27.60
2018-12-29T13:16:04.257Z,28.30
2018-12-29T13:18:35.282Z,26.23
2018-12-29T13:21:05.277Z,27.23
2018-12-29T13:23:35.504Z,32.70
2018-12-29T13:26:05.836Z,26.93
2018-12-29T13:28:36.035Z,26.23
2018-12-29T13:31:05.926Z,26.63
2018-12-29T13:33:35.907Z,24.30
2018-12-29T13:36:07.770Z,26.10
2018-12-29T13:38:37.925Z,27.27
2018-12-29T13:41:07.866Z,24.17
2018-12-29T13:43:37.748Z,28.00
2018-12-29T13:46:07.849Z,26.70
2018-12-29T13:48:38.092Z,25.03
2018-12-29T13:51:08.021Z,25.90
2018-12-29T13:53:37.880Z,24.43
2018-12-29T13:56:08.260Z,25.13
2018-12-29T13:58:38.690Z,27.47
2018-12-29T14:01:08.667Z,21.00
2018-12-29T14:03:38.937Z,23.57
2018-12-29T14:06:09.159Z,26.50
2018-12-29T14:08:40.411Z,24.33
2018-12-29T14:11:10.334Z,24.90
2018-12-29T14:13:40.419Z,23.80
2018-12-29T14:16:10.266Z,25.03
2018-12-29T14:18:40.475Z,24.13
2018-12-29T14:21:10.922Z,27.17
2018-12-29T14:23:40.764Z,22.70
2018-12-29T14:26:10.930Z,23.70
2018-12-29T14:28:40.886Z,23.47
2018-12-29T14:31:11.092Z,20.03
2018-12-29T14:33:40.946Z,22.53
2018-12-29T14:36:11.303Z,20.43
2018-12-29T14:38:41.156Z,20.03
2018-12-29T14:41:11.022Z,22.27
2018-12-29T14:43:41.258Z,19.50
2018-12-29T14:46:11.221Z,20.57
2018-12-29T14:48:41.083Z,19.00
2018-12-29T14:51:10.981Z,20.07
2018-12-29T14:53:41.220Z,19.83
2018-12-29T14:56:11.019Z,19.37
2018-12-29T14:58:40.895Z,20.50
2018-12-29T15:01:10.695Z,20.63
2018-12-29T15:03:40.493Z,18.33
2018-12-29T15:06:11.182Z,18.80
2018-12-29T15:08:41.213Z,16.57
2018-12-29T15:11:11.089Z,17.77
2018-12-29T15:13:40.972Z,18.73
2018-12-29T15:16:10.824Z,17.03
2018-12-29T15:18:43.808Z,16.10
2018-12-29T15:21:12.280Z,15.10
2018-12-29T15:23:42.073Z,16.43
2018-12-29T15:26:12.143Z,15.00
2018-12-29T15:28:42.017Z,15.53
2018-12-29T15:31:11.860Z,14.10
2018-12-29T15:33:42.712Z,13.40
2018-12-29T15:36:16.150Z,12.77
2018-12-29T15:38:44.051Z,11.97
2018-12-29T15:41:13.893Z,11.10
2018-12-29T15:43:43.676Z,13.13
2018-12-29T15:46:13.600Z,14.57
2018-12-29T15:48:50.959Z,16.03
2018-12-29T15:51:15.085Z,15.30
2018-12-29T15:53:44.879Z,16.13
2018-12-29T15:56:15.223Z,16.83
2018-12-29T15:58:44.994Z,15.40
2018-12-29T16:01:15.457Z,12.33
2018-12-29T16:03:45.661Z,13.70
2018-12-29T16:06:15.463Z,12.87
2018-12-29T16:08:45.246Z,13.03
2018-12-29T16:11:15.026Z,11.10
2018-12-29T16:13:45.174Z,13.17
2018-12-29T16:16:15.150Z,10.20
2018-12-29T16:18:45.001Z,12.10
2018-12-29T16:21:14.817Z,11.87
2018-12-29T16:23:44.666Z,10.90
2018-12-29T16:26:14.607Z,11.53
2018-12-29T16:28:44.804Z,13.00
2018-12-29T16:31:14.732Z,13.00
2018-12-29T16:33:44.604Z,12.67
2018-12-29T16:36:14.752Z,16.93
2018-12-29T16:38:44.534Z,12.87
2018-12-29T16:41:14.380Z,12.37
2018-12-29T16:43:44.709Z,17.23
2018-12-29T16:46:14.482Z,14.53
2018-12-29T16:48:44.352Z,17.27
2018-12-29T16:51:14.208Z,13.67
2018-12-29T16:53:44.574Z,15.47
2018-12-29T16:56:14.427Z,17.47
2018-12-29T16:58:44.217Z,16.40
2018-12-29T17:01:14.077Z,17.97
2018-12-29T17:03:44.545Z,18.40
2018-12-29T17:06:14.480Z,17.57
2018-12-29T17:08:44.417Z,16.27
2018-12-29T17:11:14.403Z,17.90
2018-12-29T17:13:44.972Z,18.30
2018-12-29T17:16:15.142Z,19.67
2018-12-29T17:18:45.605Z,16.37
2018-12-29T17:21:15.455Z,17.50
2018-12-29T17:23:45.432Z,19.03
2018-12-29T17:26:15.231Z,18.33
2018-12-29T17:28:45.028Z,16.40
2018-12-29T17:31:15.294Z,16.63
2018-12-29T17:33:45.360Z,17.97
2018-12-29T17:36:15.605Z,19.07
2018-12-29T17:38:45.423Z,16.47
2018-12-29T17:41:15.396Z,17.23
2018-12-29T17:43:45.487Z,19.73
2018-12-29T17:46:15.395Z,19.17
2018-12-29T17:48:45.278Z,19.50
2018-12-29T17:51:15.254Z,18.67
2018-12-29T17:53:48.209Z,19.40
2018-12-29T17:56:17.028Z,144.80
2018-12-29T17:58:46.946Z,28.67
2018-12-29T18:01:16.796Z,21.00
2018-12-29T18:03:46.699Z,18.57
2018-12-29T18:06:16.545Z,19.10
2018-12-29T18:08:46.425Z,16.80
2018-12-29T18:11:16.365Z,21.10
2018-12-29T18:13:46.449Z,17.83
2018-12-29T18:16:16.698Z,22.20
2018-12-29T18:18:46.556Z,16.93
2018-12-29T18:21:16.449Z,18.37
2018-12-29T18:23:46.329Z,20.93
2018-12-29T18:26:16.665Z,21.10
2018-12-29T18:28:46.497Z,20.13
2018-12-29T18:31:16.607Z,19.20
2018-12-29T18:33:47.243Z,23.43
2018-12-29T18:36:17.635Z,23.47
2018-12-29T18:38:49.237Z,26.37
2018-12-29T18:41:19.408Z,26.53
2018-12-29T18:43:49.452Z,31.53
2018-12-29T18:46:19.600Z,33.20
2018-12-29T18:48:50.282Z,28.73
2018-12-29T18:51:22.482Z,28.33
2018-12-29T18:53:52.508Z,34.93
2018-12-29T18:56:22.592Z,32.20
2018-12-29T18:58:52.906Z,30.40
2018-12-29T19:01:22.977Z,29.97
2018-12-29T19:03:55.109Z,35.30
2018-12-29T19:06:25.405Z,32.77
2018-12-29T19:08:55.198Z,34.93
2018-12-29T19:11:25.183Z,36.33
2018-12-29T19:13:55.133Z,36.07
2018-12-29T19:16:25.372Z,38.40
2018-12-29T19:18:55.227Z,37.30
2018-12-29T19:21:25.809Z,37.97
2018-12-29T19:23:56.242Z,39.47
2018-12-29T19:26:26.853Z,37.50
2018-12-29T19:28:57.230Z,38.47
2018-12-29T19:31:27.025Z,37.47
2018-12-29T19:33:57.223Z,39.70
2018-12-29T19:36:27.249Z,43.40
2018-12-29T19:38:57.035Z,39.33
2018-12-29T19:41:27.172Z,40.67
2018-12-29T19:43:57.819Z,41.83
2018-12-29T19:46:27.963Z,46.70
2018-12-29T19:48:57.758Z,44.43
2018-12-29T19:51:28.378Z,49.37
2018-12-29T19:53:58.486Z,41.43
2018-12-29T19:56:28.393Z,45.07
2018-12-29T19:58:58.654Z,45.40
2018-12-29T20:01:28.841Z,44.60
2018-12-29T20:03:59.016Z,40.20
2018-12-29T20:06:28.876Z,43.17
2018-12-29T20:08:58.742Z,45.70
2018-12-29T20:11:29.117Z,45.17
2018-12-29T20:13:58.991Z,46.17
2018-12-29T20:16:29.521Z,52.70
2018-12-29T20:18:59.309Z,49.03
2018-12-29T20:21:29.519Z,44.20
2018-12-29T20:23:59.713Z,49.17
2018-12-29T20:26:29.622Z,51.10
2018-12-29T20:28:59.590Z,49.87
2018-12-29T20:31:29.765Z,51.33
2018-12-29T20:33:59.548Z,44.87
2018-12-29T20:36:29.442Z,53.13
2018-12-29T20:38:59.502Z,53.50
2018-12-29T20:41:29.610Z,54.47
2018-12-29T20:43:59.411Z,50.57
2018-12-29T20:46:29.799Z,48.80
2018-12-29T20:48:59.818Z,50.07
2018-12-29T20:51:30.509Z,52.00
2018-12-29T20:54:00.376Z,47.70
2018-12-29T20:56:30.250Z,43.97
2018-12-29T20:59:00.354Z,45.37
2018-12-29T21:01:32.071Z,42.20
2018-12-29T21:04:02.662Z,44.23
2018-12-29T21:06:32.748Z,51.73
2018-12-29T21:09:03.232Z,50.37
2018-12-29T21:11:34.519Z,47.33
2018-12-29T21:14:04.670Z,47.07
2018-12-29T21:16:35.166Z,44.43
2018-12-29T21:19:05.126Z,45.07
2018-12-29T21:21:35.843Z,45.27
2018-12-29T21:24:12.148Z,48.87
2018-12-29T21:26:38.042Z,45.07
2018-12-29T21:29:08.441Z,43.50
2018-12-29T21:31:38.706Z,40.13
2018-12-29T21:34:08.849Z,44.40
2018-12-29T21:36:39.134Z,43.80
2018-12-29T21:39:09.410Z,40.77
2018-12-29T21:41:39.550Z,36.13
2018-12-29T21:44:09.361Z,35.60
2018-12-29T21:46:39.366Z,39.70
2018-12-29T21:49:09.675Z,34.07
2018-12-29T21:51:39.581Z,29.63
2018-12-29T21:54:09.546Z,28.23
2018-12-29T21:56:42.561Z,27.37
2018-12-29T21:59:12.407Z,24.23
2018-12-29T22:01:42.413Z,29.17
2018-12-29T22:04:12.783Z,28.20
2018-12-29T22:06:43.212Z,24.57
2018-12-29T22:09:13.241Z,23.03
2018-12-29T22:11:43.443Z,24.13
2018-12-29T22:14:13.338Z,18.87
2018-12-29T22:16:43.145Z,22.60
2018-12-29T22:19:13.128Z,21.10
2018-12-29T22:21:42.922Z,21.50
2018-12-29T22:24:12.698Z,15.17
2018-12-29T22:26:43.044Z,17.00
2018-12-29T22:29:12.952Z,25.40
2018-12-29T22:31:42.806Z,19.27
2018-12-29T22:34:12.662Z,12.43
2018-12-29T22:36:42.649Z,17.63
2018-12-29T22:39:13.788Z,13.53
2018-12-29T22:41:43.920Z,17.10
2018-12-29T22:44:13.842Z,10.90
2018-12-29T22:46:43.706Z,17.57
2018-12-29T22:49:13.921Z,20.77
2018-12-29T22:51:43.823Z,15.40
2018-12-29T22:54:13.986Z,17.43
2018-12-29T22:56:44.460Z,15.57
2018-12-29T22:59:14.411Z,14.53
2018-12-29T23:01:44.338Z,16.57
2018-12-29T23:04:14.404Z,18.87
2018-12-29T23:06:44.223Z,16.23
2018-12-29T23:09:14.538Z,11.90
2018-12-29T23:11:44.527Z,14.43
2018-12-29T23:14:14.463Z,11.33
2018-12-29T23:16:44.383Z,13.63
2018-12-29T23:19:14.255Z,13.13
2018-12-29T23:22:03.352Z,20.90
2018-12-29T23:24:33.261Z,13.17
2018-12-29T23:27:03.147Z,18.73
2018-12-29T23:29:33.024Z,12.87
2018-12-29T23:32:02.887Z,19.43
2018-12-29T23:34:33.140Z,11.47
2018-12-29T23:37:03.126Z,13.27
2018-12-29T23:39:32.956Z,12.50
2018-12-29T23:42:03.006Z,17.67
2018-12-29T23:44:32.824Z,12.57
2018-12-29T23:47:02.840Z,13.73
2018-12-29T23:49:33.713Z,13.07
2018-12-29T23:52:04.051Z,13.73
2018-12-29T23:54:34.018Z,15.17
2018-12-29T23:57:03.991Z,12.83
2018-12-29T23:59:34.698Z,9.07
